sensor_id;sensor_type;location;lat;lon;timestamp;P1;durP1;ratioP1;P2;durP2;ratioP2
65279;SDS011;51878;55.748;48.742;2022-08-07T00:02:10;18.80;;;7.90;;
65279;SDS011;51878;55.748;48.742;2022-08-07T00:04:57;16.55;;;8.27;;
65279;SDS011;51878;55.748;48.742;2022-08-07T00:07:24;15.27;;;8.15;;
65279;SDS011;51878;55.748;48.742;2022-08-07T00:09:52;15.57;;;8.13;;
65279;SDS011;51878;55.748;48.742;2022-08-07T00:12:40;13.90;;;9.02;;
65279;SDS011;51878;55.748;48.742;2022-08-07T00:15:21;16.98;;;8.57;;
65279;SDS011;51878;55.748;48.742;2022-08-07T00:17:51;14.95;;;8.95;;
65279;SDS011;51878;55.748;48.742;2022-08-07T00:20:18;13.27;;;7.65;;
65279;SDS011;51878;55.748;48.742;2022-08-07T00:22:55;12.93;;;7.22;;
65279;SDS011;51878;55.748;48.742;2022-08-07T00:25:22;11.60;;;6.75;;
65279;SDS011;51878;55.748;48.742;2022-08-07T00:27:50;16.63;;;7.30;;
65279;SDS011;51878;55.748;48.742;2022-08-07T00:30:22;17.33;;;7.13;;
65279;SDS011;51878;55.748;48.742;2022-08-07T00:32:53;19.02;;;6.88;;
65279;SDS011;51878;55.748;48.742;2022-08-07T00:35:24;14.45;;;7.40;;
65279;SDS011;51878;55.748;48.742;2022-08-07T00:37:52;13.65;;;7.07;;
65279;SDS011;51878;55.748;48.742;2022-08-07T00:40:20;14.65;;;7.40;;
65279;SDS011;51878;55.748;48.742;2022-08-07T00:43:02;16.15;;;7.22;;
65279;SDS011;51878;55.748;48.742;2022-08-07T00:45:29;10.95;;;6.63;;
65279;SDS011;51878;55.748;48.742;2022-08-07T00:47:56;15.35;;;7.32;;
65279;SDS011;51878;55.748;48.742;2022-08-07T00:50:35;12.00;;;6.28;;
65279;SDS011;51878;55.748;48.742;2022-08-07T00:53:11;13.38;;;6.85;;
65279;SDS011;51878;55.748;48.742;2022-08-07T00:55:38;13.40;;;6.75;;
65279;SDS011;51878;55.748;48.742;2022-08-07T00:58:26;14.10;;;7.28;;
65279;SDS011;51878;55.748;48.742;2022-08-07T01:00:53;14.93;;;8.38;;
65279;SDS011;51878;55.748;48.742;2022-08-07T01:03:20;12.77;;;8.63;;
65279;SDS011;51878;55.748;48.742;2022-08-07T01:06:07;22.00;;;9.20;;
65279;SDS011;51878;55.748;48.742;2022-08-07T01:08:35;14.00;;;7.88;;
65279;SDS011;51878;55.748;48.742;2022-08-07T01:11:02;11.18;;;7.63;;
65279;SDS011;51878;55.748;48.742;2022-08-07T01:13:36;23.02;;;7.78;;
65279;SDS011;51878;55.748;48.742;2022-08-07T01:16:03;17.35;;;8.57;;
65279;SDS011;51878;55.748;48.742;2022-08-07T01:18:32;24.83;;;7.85;;
65279;SDS011;51878;55.748;48.742;2022-08-07T01:21:10;16.50;;;7.85;;
65279;SDS011;51878;55.748;48.742;2022-08-07T01:23:43;12.23;;;6.68;;
65279;SDS011;51878;55.748;48.742;2022-08-07T01:26:13;11.02;;;6.57;;
65279;SDS011;51878;55.748;48.742;2022-08-07T01:28:42;13.68;;;7.47;;
65279;SDS011;51878;55.748;48.742;2022-08-07T01:31:11;14.15;;;5.93;;
65279;SDS011;51878;55.748;48.742;2022-08-07T01:33:41;11.10;;;5.90;;
65279;SDS011;51878;55.748;48.742;2022-08-07T01:36:19;14.05;;;5.80;;
65279;SDS011;51878;55.748;48.742;2022-08-07T01:38:46;10.35;;;5.82;;
65279;SDS011;51878;55.748;48.742;2022-08-07T01:41:14;11.27;;;5.05;;
65279;SDS011;51878;55.748;48.742;2022-08-07T01:43:51;12.55;;;5.80;;
65279;SDS011;51878;55.748;48.742;2022-08-07T01:46:19;6.47;;;3.83;;
65279;SDS011;51878;55.748;48.742;2022-08-07T01:48:47;9.13;;;4.93;;
65279;SDS011;51878;55.748;48.742;2022-08-07T01:51:19;9.45;;;3.67;;
65279;SDS011;51878;55.748;48.742;2022-08-07T01:53:55;8.73;;;4.15;;
65279;SDS011;51878;55.748;48.742;2022-08-07T01:56:48;6.60;;;4.28;;
65279;SDS011;51878;55.748;48.742;2022-08-07T01:59:23;9.23;;;4.68;;
65279;SDS011;51878;55.748;48.742;2022-08-07T02:02:18;9.38;;;3.65;;
65279;SDS011;51878;55.748;48.742;2022-08-07T02:04:59;6.68;;;4.00;;
65279;SDS011;51878;55.748;48.742;2022-08-07T02:07:42;8.98;;;4.68;;
65279;SDS011;51878;55.748;48.742;2022-08-07T02:12:44;6.32;;;5.03;;
65279;SDS011;51878;55.748;48.742;2022-08-07T02:15:14;7.93;;;4.70;;
65279;SDS011;51878;55.748;48.742;2022-08-07T02:17:46;11.38;;;4.60;;
65279;SDS011;51878;55.748;48.742;2022-08-07T02:20:15;8.85;;;4.20;;
65279;SDS011;51878;55.748;48.742;2022-08-07T02:22:45;11.98;;;3.90;;
65279;SDS011;51878;55.748;48.742;2022-08-07T02:25:19;7.82;;;4.20;;
65279;SDS011;51878;55.748;48.742;2022-08-07T02:27:57;6.70;;;4.55;;
65279;SDS011;51878;55.748;48.742;2022-08-07T02:30:27;5.70;;;3.90;;
65279;SDS011;51878;55.748;48.742;2022-08-07T02:32:54;8.07;;;4.50;;
65279;SDS011;51878;55.748;48.742;2022-08-07T02:35:26;13.00;;;3.97;;
65279;SDS011;51878;55.748;48.742;2022-08-07T02:38:15;7.80;;;3.42;;
65279;SDS011;51878;55.748;48.742;2022-08-07T02:40:43;5.38;;;3.60;;
65279;SDS011;51878;55.748;48.742;2022-08-07T02:43:14;27.52;;;3.80;;
65279;SDS011;51878;55.748;48.742;2022-08-07T02:45:42;9.15;;;3.50;;
65279;SDS011;51878;55.748;48.742;2022-08-07T02:48:24;7.45;;;3.40;;
65279;SDS011;51878;55.748;48.742;2022-08-07T02:50:53;9.20;;;3.15;;
65279;SDS011;51878;55.748;48.742;2022-08-07T02:53:23;7.05;;;3.38;;
65279;SDS011;51878;55.748;48.742;2022-08-07T02:55:56;8.77;;;3.45;;
65279;SDS011;51878;55.748;48.742;2022-08-07T03:01:19;7.50;;;4.07;;
65279;SDS011;51878;55.748;48.742;2022-08-07T03:04:01;5.25;;;3.40;;
65279;SDS011;51878;55.748;48.742;2022-08-07T03:06:32;9.32;;;3.85;;
65279;SDS011;51878;55.748;48.742;2022-08-07T03:09:00;8.02;;;3.72;;
65279;SDS011;51878;55.748;48.742;2022-08-07T03:11:30;8.50;;;4.13;;
65279;SDS011;51878;55.748;48.742;2022-08-07T03:14:04;10.85;;;4.28;;
65279;SDS011;51878;55.748;48.742;2022-08-07T03:16:32;7.57;;;3.80;;
65279;SDS011;51878;55.748;48.742;2022-08-07T03:19:01;6.13;;;4.07;;
65279;SDS011;51878;55.748;48.742;2022-08-07T03:21:28;9.65;;;4.75;;
65279;SDS011;51878;55.748;48.742;2022-08-07T03:23:58;7.60;;;4.13;;
65279;SDS011;51878;55.748;48.742;2022-08-07T03:26:44;13.18;;;4.45;;
65279;SDS011;51878;55.748;48.742;2022-08-07T03:29:16;9.35;;;4.60;;
65279;SDS011;51878;55.748;48.742;2022-08-07T03:31:45;8.43;;;4.63;;
65279;SDS011;51878;55.748;48.742;2022-08-07T03:34:16;8.38;;;4.35;;
65279;SDS011;51878;55.748;48.742;2022-08-07T03:36:48;7.18;;;4.40;;
65279;SDS011;51878;55.748;48.742;2022-08-07T03:39:18;6.93;;;4.30;;
65279;SDS011;51878;55.748;48.742;2022-08-07T03:42:06;8.05;;;4.18;;
65279;SDS011;51878;55.748;48.742;2022-08-07T03:44:34;8.18;;;4.28;;
65279;SDS011;51878;55.748;48.742;2022-08-07T03:47:03;6.25;;;3.85;;
65279;SDS011;51878;55.748;48.742;2022-08-07T03:49:37;8.73;;;4.20;;
65279;SDS011;51878;55.748;48.742;2022-08-07T03:52:05;11.02;;;4.57;;
65279;SDS011;51878;55.748;48.742;2022-08-07T03:54:33;8.27;;;4.75;;
65279;SDS011;51878;55.748;48.742;2022-08-07T03:57:20;8.95;;;4.68;;
65279;SDS011;51878;55.748;48.742;2022-08-07T04:00:08;10.57;;;4.90;;
65279;SDS011;51878;55.748;48.742;2022-08-07T04:02:37;6.95;;;4.57;;
65279;SDS011;51878;55.748;48.742;2022-08-07T04:05:06;6.82;;;4.63;;
65279;SDS011;51878;55.748;48.742;2022-08-07T04:07:34;7.53;;;5.00;;
65279;SDS011;51878;55.748;48.742;2022-08-07T04:10:08;8.13;;;4.78;;
65279;SDS011;51878;55.748;48.742;2022-08-07T04:12:41;14.43;;;4.88;;
65279;SDS011;51878;55.748;48.742;2022-08-07T04:15:08;8.00;;;5.00;;
65279;SDS011;51878;55.748;48.742;2022-08-07T04:17:37;8.13;;;4.75;;
65279;SDS011;51878;55.748;48.742;2022-08-07T04:20:11;15.07;;;5.00;;
65279;SDS011;51878;55.748;48.742;2022-08-07T04:22:39;6.97;;;4.18;;
65279;SDS011;51878;55.748;48.742;2022-08-07T04:25:20;5.93;;;3.95;;
65279;SDS011;51878;55.748;48.742;2022-08-07T04:27:49;7.55;;;4.20;;
65279;SDS011;51878;55.748;48.742;2022-08-07T04:30:24;6.40;;;4.20;;
65279;SDS011;51878;55.748;48.742;2022-08-07T04:33:08;5.28;;;3.83;;
65279;SDS011;51878;55.748;48.742;2022-08-07T04:35:37;5.68;;;4.20;;
65279;SDS011;51878;55.748;48.742;2022-08-07T04:38:07;8.98;;;4.22;;
65279;SDS011;51878;55.748;48.742;2022-08-07T04:40:41;6.13;;;4.30;;
65279;SDS011;51878;55.748;48.742;2022-08-07T04:43:18;7.68;;;4.00;;
65279;SDS011;51878;55.748;48.742;2022-08-07T04:51:33;7.05;;;4.10;;
65279;SDS011;51878;55.748;48.742;2022-08-07T04:54:17;8.55;;;4.30;;
65279;SDS011;51878;55.748;48.742;2022-08-07T04:59:58;7.07;;;4.30;;
65279;SDS011;51878;55.748;48.742;2022-08-07T05:05:29;8.55;;;4.60;;
65279;SDS011;51878;55.748;48.742;2022-08-07T05:08:19;8.77;;;4.55;;
65279;SDS011;51878;55.748;48.742;2022-08-07T05:11:13;7.53;;;4.40;;
65279;SDS011;51878;55.748;48.742;2022-08-07T05:13:54;7.60;;;4.18;;
65279;SDS011;51878;55.748;48.742;2022-08-07T05:16:46;10.25;;;4.28;;
65279;SDS011;51878;55.748;48.742;2022-08-07T05:19:18;9.45;;;4.45;;
65279;SDS011;51878;55.748;48.742;2022-08-07T05:21:52;9.50;;;4.50;;
65279;SDS011;51878;55.748;48.742;2022-08-07T05:24:26;6.90;;;3.97;;
65279;SDS011;51878;55.748;48.742;2022-08-07T05:26:56;9.02;;;4.07;;
65279;SDS011;51878;55.748;48.742;2022-08-07T05:29:26;5.50;;;4.30;;
65279;SDS011;51878;55.748;48.742;2022-08-07T05:32:07;12.68;;;5.30;;
65279;SDS011;51878;55.748;48.742;2022-08-07T05:34:35;7.70;;;4.63;;
65279;SDS011;51878;55.748;48.742;2022-08-07T05:37:03;8.65;;;4.80;;
65279;SDS011;51878;55.748;48.742;2022-08-07T05:39:31;5.60;;;4.55;;
65279;SDS011;51878;55.748;48.742;2022-08-07T05:42:19;7.38;;;4.70;;
65279;SDS011;51878;55.748;48.742;2022-08-07T05:44:59;13.13;;;4.10;;
65279;SDS011;51878;55.748;48.742;2022-08-07T05:47:30;5.88;;;4.47;;
65279;SDS011;51878;55.748;48.742;2022-08-07T05:50:04;9.70;;;4.55;;
65279;SDS011;51878;55.748;48.742;2022-08-07T05:52:32;13.23;;;4.57;;
65279;SDS011;51878;55.748;48.742;2022-08-07T05:55:00;10.40;;;5.25;;
65279;SDS011;51878;55.748;48.742;2022-08-07T05:57:33;8.35;;;4.30;;
65279;SDS011;51878;55.748;48.742;2022-08-07T06:00:03;7.93;;;4.35;;
65279;SDS011;51878;55.748;48.742;2022-08-07T06:02:34;9.07;;;4.43;;
65279;SDS011;51878;55.748;48.742;2022-08-07T06:05:04;9.23;;;5.15;;
65279;SDS011;51878;55.748;48.742;2022-08-07T06:07:33;10.48;;;4.65;;
65279;SDS011;51878;55.748;48.742;2022-08-07T06:10:21;8.30;;;4.53;;
65279;SDS011;51878;55.748;48.742;2022-08-07T06:12:49;8.23;;;4.70;;
65279;SDS011;51878;55.748;48.742;2022-08-07T06:15:16;8.60;;;3.78;;
65279;SDS011;51878;55.748;48.742;2022-08-07T06:17:45;7.15;;;3.97;;
65279;SDS011;51878;55.748;48.742;2022-08-07T06:20:16;13.88;;;4.05;;
65279;SDS011;51878;55.748;48.742;2022-08-07T06:22:51;6.60;;;3.58;;
65279;SDS011;51878;55.748;48.742;2022-08-07T06:25:27;10.65;;;4.07;;
65279;SDS011;51878;55.748;48.742;2022-08-07T06:28:03;8.60;;;3.47;;
65279;SDS011;51878;55.748;48.742;2022-08-07T06:30:32;6.50;;;3.60;;
65279;SDS011;51878;55.748;48.742;2022-08-07T06:33:02;5.25;;;3.67;;
65279;SDS011;51878;55.748;48.742;2022-08-07T06:35:35;7.82;;;3.20;;
65279;SDS011;51878;55.748;48.742;2022-08-07T06:38:05;6.32;;;3.50;;
65279;SDS011;51878;55.748;48.742;2022-08-07T06:40:34;7.00;;;3.67;;
65279;SDS011;51878;55.748;48.742;2022-08-07T06:43:11;3.97;;;3.00;;
65279;SDS011;51878;55.748;48.742;2022-08-07T06:45:46;5.20;;;2.88;;
65279;SDS011;51878;55.748;48.742;2022-08-07T06:48:13;3.60;;;2.85;;
65279;SDS011;51878;55.748;48.742;2022-08-07T06:50:41;8.27;;;3.20;;
65279;SDS011;51878;55.748;48.742;2022-08-07T06:53:13;8.15;;;3.60;;
65279;SDS011;51878;55.748;48.742;2022-08-07T06:55:44;8.60;;;3.45;;
65279;SDS011;51878;55.748;48.742;2022-08-07T06:58:13;8.95;;;3.70;;
65279;SDS011;51878;55.748;48.742;2022-08-07T07:00:42;6.75;;;3.20;;
65279;SDS011;51878;55.748;48.742;2022-08-07T07:03:11;4.20;;;3.33;;
65279;SDS011;51878;55.748;48.742;2022-08-07T07:05:40;6.43;;;3.10;;
65279;SDS011;51878;55.748;48.742;2022-08-07T07:08:28;7.32;;;3.72;;
65279;SDS011;51878;55.748;48.742;2022-08-07T07:10:56;8.93;;;3.28;;
65279;SDS011;51878;55.748;48.742;2022-08-07T07:13:30;8.32;;;3.25;;
65279;SDS011;51878;55.748;48.742;2022-08-07T07:16:17;5.93;;;3.20;;
65279;SDS011;51878;55.748;48.742;2022-08-07T07:18:49;8.63;;;4.07;;
65279;SDS011;51878;55.748;48.742;2022-08-07T07:21:22;7.22;;;3.80;;
65279;SDS011;51878;55.748;48.742;2022-08-07T07:24:05;8.73;;;3.60;;
65279;SDS011;51878;55.748;48.742;2022-08-07T07:26:38;5.75;;;3.45;;
65279;SDS011;51878;55.748;48.742;2022-08-07T07:29:15;9.32;;;3.40;;
65279;SDS011;51878;55.748;48.742;2022-08-07T07:31:49;6.60;;;3.63;;
65279;SDS011;51878;55.748;48.742;2022-08-07T07:34:26;6.97;;;3.35;;
65279;SDS011;51878;55.748;48.742;2022-08-07T07:36:58;8.02;;;3.75;;
65279;SDS011;51878;55.748;48.742;2022-08-07T07:39:30;8.60;;;4.03;;
65279;SDS011;51878;55.748;48.742;2022-08-07T07:42:01;7.65;;;3.60;;
65279;SDS011;51878;55.748;48.742;2022-08-07T07:44:35;5.00;;;3.45;;
65279;SDS011;51878;55.748;48.742;2022-08-07T07:47:05;5.80;;;3.35;;
65279;SDS011;51878;55.748;48.742;2022-08-07T07:49:38;4.88;;;3.47;;
65279;SDS011;51878;55.748;48.742;2022-08-07T07:52:29;8.05;;;3.53;;
65279;SDS011;51878;55.748;48.742;2022-08-07T07:54:58;5.82;;;3.70;;
65279;SDS011;51878;55.748;48.742;2022-08-07T07:57:26;5.88;;;3.50;;
65279;SDS011;51878;55.748;48.742;2022-08-07T08:00:10;7.57;;;3.55;;
65279;SDS011;51878;55.748;48.742;2022-08-07T08:02:40;4.60;;;3.50;;
65279;SDS011;51878;55.748;48.742;2022-08-07T08:05:15;8.38;;;3.33;;
65279;SDS011;51878;55.748;48.742;2022-08-07T08:07:44;7.97;;;3.55;;
65279;SDS011;51878;55.748;48.742;2022-08-07T08:10:17;4.93;;;3.38;;
65279;SDS011;51878;55.748;48.742;2022-08-07T08:13:01;8.77;;;3.38;;
65279;SDS011;51878;55.748;48.742;2022-08-07T08:15:30;5.03;;;3.08;;
65279;SDS011;51878;55.748;48.742;2022-08-07T08:18:09;5.05;;;3.03;;
65279;SDS011;51878;55.748;48.742;2022-08-07T08:20:43;6.78;;;3.25;;
65279;SDS011;51878;55.748;48.742;2022-08-07T08:23:13;6.60;;;3.58;;
65279;SDS011;51878;55.748;48.742;2022-08-07T08:26:02;9.38;;;2.90;;
65279;SDS011;51878;55.748;48.742;2022-08-07T08:28:50;6.28;;;3.20;;
65279;SDS011;51878;55.748;48.742;2022-08-07T08:31:20;4.93;;;3.03;;
65279;SDS011;51878;55.748;48.742;2022-08-07T08:33:55;6.72;;;3.42;;
65279;SDS011;51878;55.748;48.742;2022-08-07T08:36:28;7.95;;;3.67;;
65279;SDS011;51878;55.748;48.742;2022-08-07T08:38:59;5.35;;;3.30;;
65279;SDS011;51878;55.748;48.742;2022-08-07T08:47:07;7.93;;;3.47;;
65279;SDS011;51878;55.748;48.742;2022-08-07T08:49:55;7.47;;;3.10;;
65279;SDS011;51878;55.748;48.742;2022-08-07T08:52:32;8.73;;;3.63;;
65279;SDS011;51878;55.748;48.742;2022-08-07T09:00:50;6.20;;;3.40;;
65279;SDS011;51878;55.748;48.742;2022-08-07T09:03:33;7.35;;;3.65;;
65279;SDS011;51878;55.748;48.742;2022-08-07T09:15:14;9.10;;;3.75;;
65279;SDS011;51878;55.748;48.742;2022-08-07T09:30:28;8.18;;;3.45;;
65279;SDS011;51878;55.748;48.742;2022-08-07T09:36:23;6.13;;;3.70;;
65279;SDS011;51878;55.748;48.742;2022-08-07T09:43:06;10.30;;;3.83;;
65279;SDS011;51878;55.748;48.742;2022-08-07T09:52:14;6.43;;;4.00;;
65279;SDS011;51878;55.748;48.742;2022-08-07T10:00:06;6.95;;;3.63;;
65279;SDS011;51878;55.748;48.742;2022-08-07T10:09:28;6.70;;;3.53;;
65279;SDS011;51878;55.748;48.742;2022-08-07T10:17:47;7.70;;;3.58;;
65279;SDS011;51878;55.748;48.742;2022-08-07T10:20:38;5.43;;;3.60;;
65279;SDS011;51878;55.748;48.742;2022-08-07T10:29:25;8.07;;;4.07;;
65279;SDS011;51878;55.748;48.742;2022-08-07T10:35:33;7.57;;;4.30;;
65279;SDS011;51878;55.748;48.742;2022-08-07T10:43:38;8.18;;;3.85;;
65279;SDS011;51878;55.748;48.742;2022-08-07T10:46:17;6.90;;;3.70;;
65279;SDS011;51878;55.748;48.742;2022-08-07T10:51:21;8.93;;;3.85;;
65279;SDS011;51878;55.748;48.742;2022-08-07T10:54:16;6.88;;;3.88;;
65279;SDS011;51878;55.748;48.742;2022-08-07T11:05:23;6.75;;;3.58;;
65279;SDS011;51878;55.748;48.742;2022-08-07T11:11:24;6.80;;;3.70;;
65279;SDS011;51878;55.748;48.742;2022-08-07T11:14:23;7.00;;;3.65;;
65279;SDS011;51878;55.748;48.742;2022-08-07T11:17:13;7.13;;;3.63;;
65279;SDS011;51878;55.748;48.742;2022-08-07T11:19:54;7.18;;;3.40;;
65279;SDS011;51878;55.748;48.742;2022-08-07T11:22:29;5.30;;;3.25;;
65279;SDS011;51878;55.748;48.742;2022-08-07T11:33:28;6.53;;;3.47;;
65279;SDS011;51878;55.748;48.742;2022-08-07T11:36:39;6.75;;;3.75;;
65279;SDS011;51878;55.748;48.742;2022-08-07T12:06:23;10.68;;;3.50;;
65279;SDS011;51878;55.748;48.742;2022-08-07T12:09:17;8.25;;;3.30;;
65279;SDS011;51878;55.748;48.742;2022-08-07T12:12:03;6.82;;;3.33;;
65279;SDS011;51878;55.748;48.742;2022-08-07T12:17:17;12.52;;;3.63;;
65279;SDS011;51878;55.748;48.742;2022-08-07T12:26:02;6.50;;;3.78;;
65279;SDS011;51878;55.748;48.742;2022-08-07T12:31:40;5.93;;;3.35;;
65279;SDS011;51878;55.748;48.742;2022-08-07T12:34:18;7.75;;;3.78;;
65279;SDS011;51878;55.748;48.742;2022-08-07T12:36:48;7.18;;;3.55;;
65279;SDS011;51878;55.748;48.742;2022-08-07T12:39:19;7.60;;;3.70;;
65279;SDS011;51878;55.748;48.742;2022-08-07T12:42:09;8.57;;;3.67;;
65279;SDS011;51878;55.748;48.742;2022-08-07T12:44:39;9.82;;;3.90;;
65279;SDS011;51878;55.748;48.742;2022-08-07T12:49:55;6.10;;;3.60;;
65279;SDS011;51878;55.748;48.742;2022-08-07T12:55:07;9.35;;;3.75;;
65279;SDS011;51878;55.748;48.742;2022-08-07T12:57:42;8.30;;;4.07;;
65279;SDS011;51878;55.748;48.742;2022-08-07T13:00:27;9.43;;;3.70;;
65279;SDS011;51878;55.748;48.742;2022-08-07T13:03:11;7.35;;;3.75;;
65279;SDS011;51878;55.748;48.742;2022-08-07T13:05:56;9.75;;;3.70;;
65279;SDS011;51878;55.748;48.742;2022-08-07T13:08:47;12.18;;;4.03;;
65279;SDS011;51878;55.748;48.742;2022-08-07T13:20:40;9.55;;;3.75;;
65279;SDS011;51878;55.748;48.742;2022-08-07T13:23:33;7.85;;;3.50;;
65279;SDS011;51878;55.748;48.742;2022-08-07T13:29:25;7.90;;;3.70;;
65279;SDS011;51878;55.748;48.742;2022-08-07T13:32:09;7.40;;;3.28;;
65279;SDS011;51878;55.748;48.742;2022-08-07T13:37:40;7.93;;;3.40;;
65279;SDS011;51878;55.748;48.742;2022-08-07T13:40:26;5.47;;;3.50;;
65279;SDS011;51878;55.748;48.742;2022-08-07T13:43:06;9.48;;;3.63;;
65279;SDS011;51878;55.748;48.742;2022-08-07T13:45:39;8.88;;;3.65;;
65279;SDS011;51878;55.748;48.742;2022-08-07T13:48:30;8.85;;;5.68;;
65279;SDS011;51878;55.748;48.742;2022-08-07T13:50:59;6.20;;;3.40;;
65279;SDS011;51878;55.748;48.742;2022-08-07T13:53:30;9.55;;;3.65;;
65279;SDS011;51878;55.748;48.742;2022-08-07T13:56:22;5.25;;;3.20;;
65279;SDS011;51878;55.748;48.742;2022-08-07T13:59:01;7.97;;;3.60;;
65279;SDS011;51878;55.748;48.742;2022-08-07T14:01:47;8.10;;;3.60;;
65279;SDS011;51878;55.748;48.742;2022-08-07T14:04:24;13.30;;;3.60;;
65279;SDS011;51878;55.748;48.742;2022-08-07T14:06:55;10.65;;;3.92;;
65279;SDS011;51878;55.748;48.742;2022-08-07T14:09:25;5.50;;;3.38;;
65279;SDS011;51878;55.748;48.742;2022-08-07T14:12:24;13.07;;;3.65;;
65279;SDS011;51878;55.748;48.742;2022-08-07T14:14:59;8.15;;;3.63;;
65279;SDS011;51878;55.748;48.742;2022-08-07T14:20:21;4.35;;;3.10;;
65279;SDS011;51878;55.748;48.742;2022-08-07T14:23:17;9.23;;;3.40;;
65279;SDS011;51878;55.748;48.742;2022-08-07T14:25:58;9.60;;;3.28;;
65279;SDS011;51878;55.748;48.742;2022-08-07T14:28:54;11.68;;;3.63;;
65279;SDS011;51878;55.748;48.742;2022-08-07T14:31:28;8.90;;;3.80;;
65279;SDS011;51878;55.748;48.742;2022-08-07T14:34:08;12.50;;;4.15;;
65279;SDS011;51878;55.748;48.742;2022-08-07T14:36:46;11.00;;;3.80;;
65279;SDS011;51878;55.748;48.742;2022-08-07T14:39:21;9.82;;;4.10;;
65279;SDS011;51878;55.748;48.742;2022-08-07T14:42:11;8.35;;;4.00;;
65279;SDS011;51878;55.748;48.742;2022-08-07T14:47:15;7.57;;;3.95;;
65279;SDS011;51878;55.748;48.742;2022-08-07T14:49:50;7.65;;;3.30;;
65279;SDS011;51878;55.748;48.742;2022-08-07T14:52:23;6.80;;;3.65;;
65279;SDS011;51878;55.748;48.742;2022-08-07T14:54:54;9.50;;;3.70;;
65279;SDS011;51878;55.748;48.742;2022-08-07T14:57:24;7.05;;;4.05;;
65279;SDS011;51878;55.748;48.742;2022-08-07T14:59:54;9.43;;;3.42;;
65279;SDS011;51878;55.748;48.742;2022-08-07T15:02:31;9.98;;;3.28;;
65279;SDS011;51878;55.748;48.742;2022-08-07T15:05:00;5.97;;;3.33;;
65279;SDS011;51878;55.748;48.742;2022-08-07T15:07:29;9.35;;;3.90;;
65279;SDS011;51878;55.748;48.742;2022-08-07T15:10:20;8.98;;;3.95;;
65279;SDS011;51878;55.748;48.742;2022-08-07T15:12:56;15.60;;;4.18;;
65279;SDS011;51878;55.748;48.742;2022-08-07T15:15:34;7.93;;;3.60;;
65279;SDS011;51878;55.748;48.742;2022-08-07T15:18:09;6.57;;;3.78;;
65279;SDS011;51878;55.748;48.742;2022-08-07T15:20:56;7.85;;;3.92;;
65279;SDS011;51878;55.748;48.742;2022-08-07T15:23:30;6.30;;;3.35;;
65279;SDS011;51878;55.748;48.742;2022-08-07T15:26:20;8.00;;;3.33;;
65279;SDS011;51878;55.748;48.742;2022-08-07T15:28:57;7.60;;;3.45;;
65279;SDS011;51878;55.748;48.742;2022-08-07T15:31:48;4.90;;;3.47;;
65279;SDS011;51878;55.748;48.742;2022-08-07T15:34:23;6.38;;;3.50;;
65279;SDS011;51878;55.748;48.742;2022-08-07T15:37:11;7.88;;;3.45;;
65279;SDS011;51878;55.748;48.742;2022-08-07T15:39:45;9.02;;;3.40;;
65279;SDS011;51878;55.748;48.742;2022-08-07T15:42:36;6.72;;;3.50;;
65279;SDS011;51878;55.748;48.742;2022-08-07T15:47:57;9.27;;;3.28;;
65279;SDS011;51878;55.748;48.742;2022-08-07T15:50:30;7.75;;;3.25;;
65279;SDS011;51878;55.748;48.742;2022-08-07T15:53:05;6.40;;;3.17;;
65279;SDS011;51878;55.748;48.742;2022-08-07T15:55:57;14.38;;;3.50;;
65279;SDS011;51878;55.748;48.742;2022-08-07T15:58:34;5.97;;;3.10;;
65279;SDS011;51878;55.748;48.742;2022-08-07T16:01:06;6.68;;;3.20;;
65279;SDS011;51878;55.748;48.742;2022-08-07T16:03:47;6.50;;;2.90;;
65279;SDS011;51878;55.748;48.742;2022-08-07T16:06:31;5.25;;;3.17;;
65279;SDS011;51878;55.748;48.742;2022-08-07T16:09:03;9.98;;;3.33;;
65279;SDS011;51878;55.748;48.742;2022-08-07T16:21:14;8.93;;;3.28;;
65279;SDS011;51878;55.748;48.742;2022-08-07T16:24:30;10.80;;;3.00;;
65279;SDS011;51878;55.748;48.742;2022-08-07T16:27:08;9.57;;;3.35;;
65279;SDS011;51878;55.748;48.742;2022-08-07T16:33:08;5.60;;;2.72;;
65279;SDS011;51878;55.748;48.742;2022-08-07T16:56:33;4.88;;;2.65;;
65279;SDS011;51878;55.748;48.742;2022-08-07T17:08:07;4.97;;;2.80;;
65279;SDS011;51878;55.748;48.742;2022-08-07T17:21:32;4.95;;;3.05;;
65279;SDS011;51878;55.748;48.742;2022-08-07T17:30:04;5.28;;;2.85;;
65279;SDS011;51878;55.748;48.742;2022-08-07T17:32:49;6.97;;;2.50;;
65279;SDS011;51878;55.748;48.742;2022-08-07T17:38:33;3.45;;;2.47;;
65279;SDS011;51878;55.748;48.742;2022-08-07T17:44:33;6.07;;;2.38;;
65279;SDS011;51878;55.748;48.742;2022-08-07T17:50:21;5.00;;;2.70;;
65279;SDS011;51878;55.748;48.742;2022-08-07T17:52:57;3.47;;;2.65;;
65279;SDS011;51878;55.748;48.742;2022-08-07T17:55:34;6.70;;;3.03;;
65279;SDS011;51878;55.748;48.742;2022-08-07T17:58:21;5.55;;;2.75;;
65279;SDS011;51878;55.748;48.742;2022-08-07T18:00:58;6.00;;;2.78;;
65279;SDS011;51878;55.748;48.742;2022-08-07T18:03:46;7.88;;;2.60;;
65279;SDS011;51878;55.748;48.742;2022-08-07T18:06:32;5.95;;;3.00;;
65279;SDS011;51878;55.748;48.742;2022-08-07T18:09:04;6.00;;;3.03;;
65279;SDS011;51878;55.748;48.742;2022-08-07T18:11:49;8.43;;;2.47;;
65279;SDS011;51878;55.748;48.742;2022-08-07T18:14:42;6.20;;;2.78;;
65279;SDS011;51878;55.748;48.742;2022-08-07T18:17:22;4.00;;;2.67;;
65279;SDS011;51878;55.748;48.742;2022-08-07T18:20:32;8.23;;;2.72;;
65279;SDS011;51878;55.748;48.742;2022-08-07T18:26:25;7.20;;;2.90;;
65279;SDS011;51878;55.748;48.742;2022-08-07T18:41:01;6.32;;;2.53;;
65279;SDS011;51878;55.748;48.742;2022-08-07T19:01:13;5.60;;;2.58;;
65279;SDS011;51878;55.748;48.742;2022-08-07T19:04:29;4.43;;;2.47;;
65279;SDS011;51878;55.748;48.742;2022-08-07T19:07:27;3.35;;;2.60;;
65279;SDS011;51878;55.748;48.742;2022-08-07T19:10:04;6.20;;;2.72;;
65279;SDS011;51878;55.748;48.742;2022-08-07T19:15:43;3.97;;;2.75;;
65279;SDS011;51878;55.748;48.742;2022-08-07T19:18:36;4.35;;;2.63;;
65279;SDS011;51878;55.748;48.742;2022-08-07T19:21:31;4.50;;;3.00;;
65279;SDS011;51878;55.748;48.742;2022-08-07T19:24:56;5.60;;;2.80;;
65279;SDS011;51878;55.748;48.742;2022-08-07T19:27:06;5.25;;;2.60;;
65279;SDS011;51878;55.748;48.742;2022-08-07T19:29:56;7.47;;;2.95;;
65279;SDS011;51878;55.748;48.742;2022-08-07T19:32:48;8.45;;;2.95;;
65279;SDS011;51878;55.748;48.742;2022-08-07T19:35:24;4.05;;;2.70;;
65279;SDS011;51878;55.748;48.742;2022-08-07T19:37:59;6.78;;;2.83;;
65279;SDS011;51878;55.748;48.742;2022-08-07T19:40:29;11.60;;;3.67;;
65279;SDS011;51878;55.748;48.742;2022-08-07T19:43:11;3.80;;;2.72;;
65279;SDS011;51878;55.748;48.742;2022-08-07T19:45:47;7.35;;;4.97;;
65279;SDS011;51878;55.748;48.742;2022-08-07T19:48:55;5.95;;;2.92;;
65279;SDS011;51878;55.748;48.742;2022-08-07T19:51:25;8.18;;;2.90;;
65279;SDS011;51878;55.748;48.742;2022-08-07T19:54:17;4.95;;;2.80;;
65279;SDS011;51878;55.748;48.742;2022-08-07T19:57:01;5.82;;;3.00;;
65279;SDS011;51878;55.748;48.742;2022-08-07T19:59:51;6.82;;;3.08;;
65279;SDS011;51878;55.748;48.742;2022-08-07T20:02:28;5.85;;;2.90;;
65279;SDS011;51878;55.748;48.742;2022-08-07T20:05:02;5.68;;;2.95;;
65279;SDS011;51878;55.748;48.742;2022-08-07T20:07:33;5.38;;;3.20;;
65279;SDS011;51878;55.748;48.742;2022-08-07T20:10:13;4.88;;;2.90;;
65279;SDS011;51878;55.748;48.742;2022-08-07T20:13:03;7.25;;;3.08;;
65279;SDS011;51878;55.748;48.742;2022-08-07T20:15:33;5.50;;;2.88;;
65279;SDS011;51878;55.748;48.742;2022-08-07T20:18:03;6.57;;;3.35;;
65279;SDS011;51878;55.748;48.742;2022-08-07T20:20:41;6.20;;;2.97;;